sensor_id;sensor_type;location;lat;lon;timestamp;pressure;altitude;pressure_sealevel;temperature;humidity
29815;BME280;16708;50.426;7.664;2023-03-04T00:04:04;995.24;;;-0.79;100.00
29815;BME280;16708;50.426;7.664;2023-03-04T00:08:58;995.27;;;-0.70;100.00
29815;BME280;16708;50.426;7.664;2023-03-04T00:13:52;995.19;;;-0.70;100.00
29815;BME280;16708;50.426;7.664;2023-03-04T00:18:46;995.29;;;-0.57;100.00
29815;BME280;16708;50.426;7.664;2023-03-04T00:23:40;995.13;;;-0.42;100.00
29815;BME280;16708;50.426;7.664;2023-03-04T00:28:34;995.13;;;-0.36;100.00
29815;BME280;16708;50.426;7.664;2023-03-04T00:33:28;995.16;;;-0.36;100.00
29815;BME280;16708;50.426;7.664;2023-03-04T00:38:22;995.18;;;-0.34;100.00
29815;BME280;16708;50.426;7.664;2023-03-04T00:43:14;995.16;;;-0.39;100.00
29815;BME280;16708;50.426;7.664;2023-03-04T00:48:08;995.12;;;-0.39;100.00
29815;BME280;16708;50.426;7.664;2023-03-04T00:53:02;995.08;;;-0.36;100.00
29815;BME280;16708;50.426;7.664;2023-03-04T00:57:56;995.09;;;-0.37;100.00
29815;BME280;16708;50.426;7.664;2023-03-04T01:02:49;995.02;;;-0.25;100.00
29815;BME280;16708;50.426;7.664;2023-03-04T01:07:43;995.04;;;-0.21;100.00
29815;BME280;16708;50.426;7.664;2023-03-04T01:12:37;994.94;;;-0.23;100.00
29815;BME280;16708;50.426;7.664;2023-03-04T01:17:30;994.91;;;-0.47;100.00
29815;BME280;16708;50.426;7.664;2023-03-04T01:22:22;994.96;;;-0.41;100.00
29815;BME280;16708;50.426;7.664;2023-03-04T01:27:16;994.86;;;-0.33;100.00
29815;BME280;16708;50.426;7.664;2023-03-04T01:32:10;994.81;;;-0.55;100.00
29815;BME280;16708;50.426;7.664;2023-03-04T01:37:03;994.70;;;-0.43;100.00
29815;BME280;16708;50.426;7.664;2023-03-04T01:41:57;994.75;;;-0.37;100.00
29815;BME280;16708;50.426;7.664;2023-03-04T01:46:51;994.72;;;-0.25;100.00
29815;BME280;16708;50.426;7.664;2023-03-04T01:51:44;994.60;;;-0.43;100.00
29815;BME280;16708;50.426;7.664;2023-03-04T02:01:31;994.47;;;-0.46;100.00
29815;BME280;16708;50.426;7.664;2023-03-04T02:06:25;994.49;;;-0.34;100.00
29815;BME280;16708;50.426;7.664;2023-03-04T02:11:19;994.47;;;-0.26;100.00
29815;BME280;16708;50.426;7.664;2023-03-04T02:16:13;994.41;;;-0.25;100.00
29815;BME280;16708;50.426;7.664;2023-03-04T02:21:07;994.47;;;-0.25;100.00
29815;BME280;16708;50.426;7.664;2023-03-04T02:26:00;994.37;;;-0.27;100.00
29815;BME280;16708;50.426;7.664;2023-03-04T02:30:54;994.43;;;-0.25;100.00
29815;BME280;16708;50.426;7.664;2023-03-04T02:35:47;994.41;;;-0.22;100.00
29815;BME280;16708;50.426;7.664;2023-03-04T02:40:41;994.28;;;-0.25;100.00
29815;BME280;16708;50.426;7.664;2023-03-04T02:45:34;994.35;;;-0.27;100.00
29815;BME280;16708;50.426;7.664;2023-03-04T02:50:29;994.28;;;-0.24;100.00
29815;BME280;16708;50.426;7.664;2023-03-04T02:55:23;994.28;;;-0.35;100.00
29815;BME280;16708;50.426;7.664;2023-03-04T03:00:16;994.28;;;-0.40;100.00
29815;BME280;16708;50.426;7.664;2023-03-04T03:05:10;994.27;;;-0.41;100.00
29815;BME280;16708;50.426;7.664;2023-03-04T03:10:03;994.27;;;-0.32;100.00
29815;BME280;16708;50.426;7.664;2023-03-04T03:14:57;994.17;;;-0.30;100.00
29815;BME280;16708;50.426;7.664;2023-03-04T03:19:51;994.17;;;-0.24;100.00
29815;BME280;16708;50.426;7.664;2023-03-04T03:24:43;994.13;;;-0.25;100.00
29815;BME280;16708;50.426;7.664;2023-03-04T03:29:37;994.10;;;-0.30;100.00
29815;BME280;16708;50.426;7.664;2023-03-04T03:34:32;994.09;;;-0.32;100.00
29815;BME280;16708;50.426;7.664;2023-03-04T03:39:25;993.97;;;-0.28;100.00
29815;BME280;16708;50.426;7.664;2023-03-04T03:44:19;994.09;;;-0.23;100.00
29815;BME280;16708;50.426;7.664;2023-03-04T03:49:13;994.14;;;-0.20;100.00
29815;BME280;16708;50.426;7.664;2023-03-04T03:54:07;994.05;;;-0.23;100.00
29815;BME280;16708;50.426;7.664;2023-03-04T03:59:00;994.05;;;-0.21;100.00
29815;BME280;16708;50.426;7.664;2023-03-04T04:03:52;994.06;;;-0.26;100.00
29815;BME280;16708;50.426;7.664;2023-03-04T04:08:44;994.05;;;-0.29;100.00
29815;BME280;16708;50.426;7.664;2023-03-04T04:13:39;994.04;;;-0.32;100.00
29815;BME280;16708;50.426;7.664;2023-03-04T04:18:32;993.99;;;-0.28;100.00
29815;BME280;16708;50.426;7.664;2023-03-04T04:23:26;993.94;;;-0.38;100.00
29815;BME280;16708;50.426;7.664;2023-03-04T04:28:20;993.90;;;-0.34;100.00
29815;BME280;16708;50.426;7.664;2023-03-04T04:33:13;993.83;;;-0.30;100.00
29815;BME280;16708;50.426;7.664;2023-03-04T04:38:07;993.81;;;-0.30;100.00
29815;BME280;16708;50.426;7.664;2023-03-04T04:43:00;993.74;;;-0.39;100.00
29815;BME280;16708;50.426;7.664;2023-03-04T04:47:54;993.68;;;-0.35;100.00
29815;BME280;16708;50.426;7.664;2023-03-04T04:52:47;993.78;;;-0.33;100.00
29815;BME280;16708;50.426;7.664;2023-03-04T04:57:41;993.80;;;-0.33;100.00
29815;BME280;16708;50.426;7.664;2023-03-04T05:02:35;993.73;;;-0.32;100.00
29815;BME280;16708;50.426;7.664;2023-03-04T05:07:29;993.72;;;-0.26;100.00
29815;BME280;16708;50.426;7.664;2023-03-04T05:12:23;993.77;;;-0.23;100.00
29815;BME280;16708;50.426;7.664;2023-03-04T05:17:17;993.78;;;-0.21;100.00
29815;BME280;16708;50.426;7.664;2023-03-04T05:22:10;993.76;;;-0.35;100.00
29815;BME280;16708;50.426;7.664;2023-03-04T05:27:03;993.80;;;-0.38;100.00
29815;BME280;16708;50.426;7.664;2023-03-04T05:31:56;993.72;;;-0.36;100.00
29815;BME280;16708;50.426;7.664;2023-03-04T05:36:49;993.73;;;-0.44;100.00
29815;BME280;16708;50.426;7.664;2023-03-04T05:41:43;993.71;;;-0.30;100.00
29815;BME280;16708;50.426;7.664;2023-03-04T05:46:37;993.76;;;-0.24;100.00
29815;BME280;16708;50.426;7.664;2023-03-04T05:51:31;993.81;;;-0.24;100.00
29815;BME280;16708;50.426;7.664;2023-03-04T05:56:24;993.88;;;-0.16;100.00
29815;BME280;16708;50.426;7.664;2023-03-04T06:01:18;993.82;;;-0.15;100.00
29815;BME280;16708;50.426;7.664;2023-03-04T06:06:11;993.83;;;-0.16;100.00
29815;BME280;16708;50.426;7.664;2023-03-04T06:11:05;993.93;;;-0.17;100.00
29815;BME280;16708;50.426;7.664;2023-03-04T06:15:58;994.01;;;-0.09;100.00
29815;BME280;16708;50.426;7.664;2023-03-04T06:20:52;994.05;;;-0.04;100.00
29815;BME280;16708;50.426;7.664;2023-03-04T06:25:46;994.08;;;-0.03;100.00
29815;BME280;16708;50.426;7.664;2023-03-04T06:30:40;994.13;;;0.01;100.00
29815;BME280;16708;50.426;7.664;2023-03-04T06:35:33;994.18;;;-0.13;100.00
29815;BME280;16708;50.426;7.664;2023-03-04T06:40:27;994.24;;;-0.07;100.00
29815;BME280;16708;50.426;7.664;2023-03-04T06:45:21;994.32;;;0.37;100.00
29815;BME280;16708;50.426;7.664;2023-03-04T06:50:12;994.25;;;0.51;100.00
29815;BME280;16708;50.426;7.664;2023-03-04T06:55:06;994.29;;;0.71;100.00
29815;BME280;16708;50.426;7.664;2023-03-04T07:00:00;994.22;;;0.73;100.00
29815;BME280;16708;50.426;7.664;2023-03-04T07:04:54;994.25;;;0.64;100.00
29815;BME280;16708;50.426;7.664;2023-03-04T07:09:47;994.25;;;0.76;100.00
29815;BME280;16708;50.426;7.664;2023-03-04T07:14:42;994.33;;;0.95;100.00
29815;BME280;16708;50.426;7.664;2023-03-04T07:19:35;994.33;;;1.05;100.00
29815;BME280;16708;50.426;7.664;2023-03-04T07:24:29;994.37;;;1.23;100.00
29815;BME280;16708;50.426;7.664;2023-03-04T07:29:24;994.38;;;1.30;100.00
29815;BME280;16708;50.426;7.664;2023-03-04T07:34:18;994.39;;;1.50;100.00
29815;BME280;16708;50.426;7.664;2023-03-04T07:39:11;994.37;;;1.63;100.00
29815;BME280;16708;50.426;7.664;2023-03-04T07:44:04;994.47;;;1.72;100.00
29815;BME280;16708;50.426;7.664;2023-03-04T07:48:56;994.52;;;1.81;100.00
29815;BME280;16708;50.426;7.664;2023-03-04T07:53:49;994.55;;;1.97;100.00
29815;BME280;16708;50.426;7.664;2023-03-04T07:58:43;994.54;;;2.04;100.00
29815;BME280;16708;50.426;7.664;2023-03-04T08:03:37;994.58;;;1.94;100.00
29815;BME280;16708;50.426;7.664;2023-03-04T08:08:29;994.64;;;1.84;100.00
29815;BME280;16708;50.426;7.664;2023-03-04T08:13:23;994.66;;;1.80;100.00
29815;BME280;16708;50.426;7.664;2023-03-04T08:18:16;994.69;;;1.88;100.00
29815;BME280;16708;50.426;7.664;2023-03-04T08:23:11;994.61;;;1.97;100.00
29815;BME280;16708;50.426;7.664;2023-03-04T08:28:04;994.57;;;2.38;100.00
29815;BME280;16708;50.426;7.664;2023-03-04T08:32:58;994.66;;;2.79;100.00
29815;BME280;16708;50.426;7.664;2023-03-04T08:37:52;994.67;;;3.12;100.00
29815;BME280;16708;50.426;7.664;2023-03-04T08:42:45;994.77;;;3.19;100.00
29815;BME280;16708;50.426;7.664;2023-03-04T08:47:39;994.81;;;3.14;100.00
29815;BME280;16708;50.426;7.664;2023-03-04T08:52:33;994.70;;;3.04;100.00
29815;BME280;16708;50.426;7.664;2023-03-04T08:57:28;994.73;;;3.28;100.00
29815;BME280;16708;50.426;7.664;2023-03-04T09:02:22;994.63;;;3.39;100.00
29815;BME280;16708;50.426;7.664;2023-03-04T09:07:15;994.74;;;3.49;100.00
29815;BME280;16708;50.426;7.664;2023-03-04T09:12:07;994.65;;;3.38;100.00
29815;BME280;16708;50.426;7.664;2023-03-04T09:17:03;994.70;;;3.38;100.00
29815;BME280;16708;50.426;7.664;2023-03-04T09:21:55;994.71;;;3.40;100.00
29815;BME280;16708;50.426;7.664;2023-03-04T09:26:49;994.68;;;3.54;100.00
29815;BME280;16708;50.426;7.664;2023-03-04T09:31:44;994.78;;;3.57;100.00
29815;BME280;16708;50.426;7.664;2023-03-04T09:36:37;994.72;;;3.58;100.00
29815;BME280;16708;50.426;7.664;2023-03-04T09:41:32;994.73;;;3.53;100.00
29815;BME280;16708;50.426;7.664;2023-03-04T09:46:27;994.81;;;3.45;100.00
29815;BME280;16708;50.426;7.664;2023-03-04T09:51:20;994.79;;;3.47;100.00
29815;BME280;16708;50.426;7.664;2023-03-04T09:56:14;994.67;;;3.60;100.00
29815;BME280;16708;50.426;7.664;2023-03-04T10:01:08;994.66;;;3.62;100.00
29815;BME280;16708;50.426;7.664;2023-03-04T10:06:01;994.63;;;3.74;100.00
29815;BME280;16708;50.426;7.664;2023-03-04T10:10:55;994.61;;;3.76;100.00
29815;BME280;16708;50.426;7.664;2023-03-04T10:15:49;994.60;;;3.95;100.00
29815;BME280;16708;50.426;7.664;2023-03-04T10:25:38;994.55;;;4.02;100.00
29815;BME280;16708;50.426;7.664;2023-03-04T10:30:32;994.48;;;3.98;100.00
29815;BME280;16708;50.426;7.664;2023-03-04T10:40:20;994.42;;;4.18;100.00
29815;BME280;16708;50.426;7.664;2023-03-04T10:45:13;994.41;;;4.21;100.00
29815;BME280;16708;50.426;7.664;2023-03-04T10:50:07;994.44;;;4.17;100.00
29815;BME280;16708;50.426;7.664;2023-03-04T11:04:47;994.39;;;5.07;100.00
29815;BME280;16708;50.426;7.664;2023-03-04T11:14:36;994.31;;;6.14;100.00
29815;BME280;16708;50.426;7.664;2023-03-04T11:19:31;994.27;;;6.79;100.00
29815;BME280;16708;50.426;7.664;2023-03-04T11:24:25;994.24;;;6.24;100.00
29815;BME280;16708;50.426;7.664;2023-03-04T11:34:14;994.15;;;6.14;100.00
29815;BME280;16708;50.426;7.664;2023-03-04T11:39:08;994.13;;;5.74;100.00
29815;BME280;16708;50.426;7.664;2023-03-04T11:44:02;994.11;;;5.37;100.00
29815;BME280;16708;50.426;7.664;2023-03-04T11:53:49;993.96;;;5.22;100.00
29815;BME280;16708;50.426;7.664;2023-03-04T12:08:32;993.76;;;5.98;100.00
29815;BME280;16708;50.426;7.664;2023-03-04T12:28:08;993.57;;;5.93;100.00
29815;BME280;16708;50.426;7.664;2023-03-04T12:42:50;993.40;;;6.11;100.00
29815;BME280;16708;50.426;7.664;2023-03-04T12:52:37;993.33;;;6.02;100.00
29815;BME280;16708;50.426;7.664;2023-03-04T13:07:20;993.15;;;5.73;100.00
29815;BME280;16708;50.426;7.664;2023-03-04T13:26:54;993.09;;;5.98;100.00
29815;BME280;16708;50.426;7.664;2023-03-04T13:31:48;993.10;;;5.63;100.00
29815;BME280;16708;50.426;7.664;2023-03-04T13:41:35;993.06;;;5.75;100.00
29815;BME280;16708;50.426;7.664;2023-03-04T13:56:16;992.94;;;5.78;100.00
29815;BME280;16708;50.426;7.664;2023-03-04T14:01:10;992.96;;;5.64;100.00
29815;BME280;16708;50.426;7.664;2023-03-04T14:06:04;992.89;;;5.50;100.00
29815;BME280;16708;50.426;7.664;2023-03-04T14:15:50;992.86;;;5.72;100.00
29815;BME280;16708;50.426;7.664;2023-03-04T14:20:44;992.84;;;5.54;100.00
29815;BME280;16708;50.426;7.664;2023-03-04T14:25:38;992.78;;;5.28;100.00
29815;BME280;16708;50.426;7.664;2023-03-04T14:30:32;992.83;;;5.27;100.00
29815;BME280;16708;50.426;7.664;2023-03-04T14:35:26;992.74;;;5.18;100.00
29815;BME280;16708;50.426;7.664;2023-03-04T14:40:20;992.56;;;5.49;100.00
29815;BME280;16708;50.426;7.664;2023-03-04T14:45:14;992.46;;;5.61;100.00
29815;BME280;16708;50.426;7.664;2023-03-04T15:04:50;992.25;;;5.34;100.00
29815;BME280;16708;50.426;7.664;2023-03-04T15:09:44;992.30;;;5.54;100.00
29815;BME280;16708;50.426;7.664;2023-03-04T15:14:38;992.23;;;5.64;100.00
29815;BME280;16708;50.426;7.664;2023-03-04T15:24:27;992.14;;;5.40;100.00
29815;BME280;16708;50.426;7.664;2023-03-04T15:29:21;992.20;;;5.20;100.00
29815;BME280;16708;50.426;7.664;2023-03-04T15:34:15;992.11;;;5.23;100.00
29815;BME280;16708;50.426;7.664;2023-03-04T15:39:09;992.07;;;5.25;100.00
29815;BME280;16708;50.426;7.664;2023-03-04T15:48:56;992.12;;;5.10;100.00
29815;BME280;16708;50.426;7.664;2023-03-04T15:53:50;992.03;;;5.02;100.00
29815;BME280;16708;50.426;7.664;2023-03-04T15:58:44;992.12;;;4.98;100.00
29815;BME280;16708;50.426;7.664;2023-03-04T16:03:38;992.03;;;4.88;100.00
29815;BME280;16708;50.426;7.664;2023-03-04T16:08:31;992.05;;;4.91;100.00
29815;BME280;16708;50.426;7.664;2023-03-04T16:13:25;992.10;;;4.89;100.00
29815;BME280;16708;50.426;7.664;2023-03-04T16:18:19;992.07;;;4.79;100.00
29815;BME280;16708;50.426;7.664;2023-03-04T16:23:13;992.05;;;4.78;100.00
29815;BME280;16708;50.426;7.664;2023-03-04T16:28:07;992.05;;;4.80;100.00
29815;BME280;16708;50.426;7.664;2023-03-04T16:33:01;992.10;;;4.81;100.00
29815;BME280;16708;50.426;7.664;2023-03-04T16:37:55;992.06;;;4.77;100.00
29815;BME280;16708;50.426;7.664;2023-03-04T16:42:49;992.04;;;4.73;100.00
29815;BME280;16708;50.426;7.664;2023-03-04T16:47:43;991.99;;;4.69;100.00
29815;BME280;16708;50.426;7.664;2023-03-04T16:52:36;992.04;;;4.66;100.00
29815;BME280;16708;50.426;7.664;2023-03-04T16:57:33;992.02;;;4.64;100.00
29815;BME280;16708;50.426;7.664;2023-03-04T17:02:24;992.06;;;4.56;100.00
29815;BME280;16708;50.426;7.664;2023-03-04T17:07:18;991.94;;;4.58;100.00
29815;BME280;16708;50.426;7.664;2023-03-04T17:12:12;991.98;;;4.51;100.00
29815;BME280;16708;50.426;7.664;2023-03-04T17:17:03;991.94;;;4.41;100.00
29815;BME280;16708;50.426;7.664;2023-03-04T17:21:56;991.94;;;4.38;100.00
29815;BME280;16708;50.426;7.664;2023-03-04T17:26:49;991.91;;;4.33;100.00
29815;BME280;16708;50.426;7.664;2023-03-04T17:31:43;991.94;;;4.35;100.00
29815;BME280;16708;50.426;7.664;2023-03-04T17:36:37;991.90;;;4.31;100.00
29815;BME280;16708;50.426;7.664;2023-03-04T17:41:31;991.93;;;4.29;100.00
29815;BME280;16708;50.426;7.664;2023-03-04T17:46:25;991.94;;;4.24;100.00
29815;BME280;16708;50.426;7.664;2023-03-04T17:51:19;991.99;;;4.44;100.00
29815;BME280;16708;50.426;7.664;2023-03-04T17:56:13;991.98;;;4.79;100.00
29815;BME280;16708;50.426;7.664;2023-03-04T18:01:07;992.01;;;4.37;100.00
29815;BME280;16708;50.426;7.664;2023-03-04T18:06:01;991.95;;;4.26;100.00
29815;BME280;16708;50.426;7.664;2023-03-04T18:10:55;991.98;;;4.21;100.00
29815;BME280;16708;50.426;7.664;2023-03-04T18:15:47;991.99;;;4.16;100.00
29815;BME280;16708;50.426;7.664;2023-03-04T18:20:41;992.01;;;4.11;100.00
29815;BME280;16708;50.426;7.664;2023-03-04T18:25:35;992.02;;;4.07;100.00
29815;BME280;16708;50.426;7.664;2023-03-04T18:30:29;991.91;;;4.08;100.00
29815;BME280;16708;50.426;7.664;2023-03-04T18:35:23;991.88;;;4.09;100.00
29815;BME280;16708;50.426;7.664;2023-03-04T18:40:17;991.92;;;4.04;100.00
29815;BME280;16708;50.426;7.664;2023-03-04T18:45:11;991.92;;;4.04;100.00
29815;BME280;16708;50.426;7.664;2023-03-04T18:50:04;991.90;;;3.93;100.00
29815;BME280;16708;50.426;7.664;2023-03-04T18:54:58;991.92;;;3.93;100.00
29815;BME280;16708;50.426;7.664;2023-03-04T18:59:52;991.92;;;3.88;100.00
29815;BME280;16708;50.426;7.664;2023-03-04T19:04:45;991.93;;;3.90;100.00
29815;BME280;16708;50.426;7.664;2023-03-04T19:09:39;991.95;;;3.84;100.00
29815;BME280;16708;50.426;7.664;2023-03-04T19:14:33;991.96;;;3.85;100.00
29815;BME280;16708;50.426;7.664;2023-03-04T19:19:27;991.93;;;3.81;100.00
29815;BME280;16708;50.426;7.664;2023-03-04T19:24:21;991.96;;;3.92;100.00
29815;BME280;16708;50.426;7.664;2023-03-04T19:29:15;991.94;;;3.82;100.00
29815;BME280;16708;50.426;7.664;2023-03-04T19:34:09;992.01;;;3.80;100.00
29815;BME280;16708;50.426;7.664;2023-03-04T19:39:02;992.06;;;3.81;100.00
29815;BME280;16708;50.426;7.664;2023-03-04T19:43:57;992.00;;;3.83;100.00
29815;BME280;16708;50.426;7.664;2023-03-04T19:48:51;992.02;;;3.88;100.00
29815;BME280;16708;50.426;7.664;2023-03-04T19:53:45;992.03;;;3.90;100.00
29815;BME280;16708;50.426;7.664;2023-03-04T19:58:38;991.99;;;3.82;100.00
29815;BME280;16708;50.426;7.664;2023-03-04T20:03:33;991.95;;;3.76;100.00
29815;BME280;16708;50.426;7.664;2023-03-04T20:08:27;991.92;;;3.76;100.00
29815;BME280;16708;50.426;7.664;2023-03-04T20:13:21;991.98;;;3.72;100.00
29815;BME280;16708;50.426;7.664;2023-03-04T20:18:15;991.80;;;3.69;100.00
29815;BME280;16708;50.426;7.664;2023-03-04T20:23:09;991.90;;;3.69;100.00
29815;BME280;16708;50.426;7.664;2023-03-04T20:28:03;991.96;;;3.74;100.00
29815;BME280;16708;50.426;7.664;2023-03-04T20:32:57;991.95;;;3.72;100.00
29815;BME280;16708;50.426;7.664;2023-03-04T20:37:51;991.97;;;3.70;100.00
29815;BME280;16708;50.426;7.664;2023-03-04T20:42:45;992.00;;;3.73;100.00
29815;BME280;16708;50.426;7.664;2023-03-04T20:47:36;991.94;;;3.71;100.00
29815;BME280;16708;50.426;7.664;2023-03-04T20:52:30;991.94;;;3.65;100.00
29815;BME280;16708;50.426;7.664;2023-03-04T20:57:24;991.93;;;3.66;100.00
29815;BME280;16708;50.426;7.664;2023-03-04T21:02:18;991.97;;;3.79;100.00
29815;BME280;16708;50.426;7.664;2023-03-04T21:07:13;991.92;;;3.74;100.00
29815;BME280;16708;50.426;7.664;2023-03-04T21:12:06;991.90;;;3.69;100.00
29815;BME280;16708;50.426;7.664;2023-03-04T21:17:00;991.86;;;3.66;100.00
29815;BME280;16708;50.426;7.664;2023-03-04T21:21:54;991.82;;;3.68;100.00
29815;BME280;16708;50.426;7.664;2023-03-04T21:26:48;991.82;;;3.67;100.00
29815;BME280;16708;50.426;7.664;2023-03-04T21:31:42;991.77;;;3.61;100.00
29815;BME280;16708;50.426;7.664;2023-03-04T21:36:36;991.81;;;3.65;100.00
29815;BME280;16708;50.426;7.664;2023-03-04T21:41:30;991.76;;;3.64;100.00
29815;BME280;16708;50.426;7.664;2023-03-04T21:46:24;991.73;;;3.63;100.00
29815;BME280;16708;50.426;7.664;2023-03-04T21:51:17;991.76;;;3.64;100.00
29815;BME280;16708;50.426;7.664;2023-03-04T21:56:14;991.74;;;3.68;100.00
29815;BME280;16708;50.426;7.664;2023-03-04T22:01:03;991.74;;;3.71;100.00
29815;BME280;16708;50.426;7.664;2023-03-04T22:05:57;991.69;;;3.70;100.00
29815;BME280;16708;50.426;7.664;2023-03-04T22:10:51;991.71;;;3.73;100.00
29815;BME280;16708;50.426;7.664;2023-03-04T22:15:45;991.69;;;3.73;100.00
29815;BME280;16708;50.426;7.664;2023-03-04T22:20:38;991.71;;;3.73;100.00
29815;BME280;16708;50.426;7.664;2023-03-04T22:25:33;991.68;;;3.74;100.00
29815;BME280;16708;50.426;7.664;2023-03-04T22:30:27;991.60;;;3.74;100.00
29815;BME280;16708;50.426;7.664;2023-03-04T22:35:18;991.66;;;3.71;100.00
29815;BME280;16708;50.426;7.664;2023-03-04T22:40:14;991.66;;;3.71;100.00
29815;BME280;16708;50.426;7.664;2023-03-04T22:45:07;991.65;;;3.69;100.00
29815;BME280;16708;50.426;7.664;2023-03-04T22:50:01;991.69;;;3.65;100.00
29815;BME280;16708;50.426;7.664;2023-03-04T22:54:55;991.63;;;3.67;100.00
29815;BME280;16708;50.426;7.664;2023-03-04T22:59:49;991.58;;;3.67;100.00
29815;BME280;16708;50.426;7.664;2023-03-04T23:04:43;991.55;;;3.63;100.00
29815;BME280;16708;50.426;7.664;2023-03-04T23:09:37;991.50;;;3.62;100.00
29815;BME280;16708;50.426;7.664;2023-03-04T23:14:31;991.56;;;3.57;100.00
29815;BME280;16708;50.426;7.664;2023-03-04T23:19:25;991.51;;;3.64;100.00
29815;BME280;16708;50.426;7.664;2023-03-04T23:24:19;991.40;;;3.60;100.00
29815;BME280;16708;50.426;7.664;2023-03-04T23:29:12;991.51;;;3.56;100.00
29815;BME280;16708;50.426;7.664;2023-03-04T23:34:07;991.49;;;3.55;100.00
29815;BME280;16708;50.426;7.664;2023-03-04T23:39:01;991.35;;;3.50;100.00
29815;BME280;16708;50.426;7.664;2023-03-04T23:43:54;991.39;;;3.49;100.00
29815;BME280;16708;50.426;7.664;2023-03-04T23:48:48;991.32;;;3.49;100.00
29815;BME280;16708;50.426;7.664;2023-03-04T23:53:42;991.31;;;3.47;100.00
29815;BME280;16708;50.426;7.664;2023-03-04T23:58:36;991.19;;;3.44;100.00
